Time;durP1;ratioP1;P1;durP2;ratioP2;P2;SDS_P1;SDS_P2;PMS_P1;PMS_P2;Temp;Humidity;BMP_temperature;BMP_pressure;BME280_temperature;BME280_humidity;BME280_pressure;Samples;Min_cycle;Max_cycle;Signal;HPM_P1;HPM_P2
2023/06/27 00:01:08;;;;;;;9.88;4.40;;;15.40;99.90;;;;;;5039315;28;20048;-73
2023/06/27 00:03:34;;;;;;;10.73;4.80;;;15.40;99.90;;;;;;5039128;28;20400;-73
2023/06/27 00:06:00;;;;;;;6.72;4.30;;;15.40;99.90;;;;;;5039007;28;20045;-73
2023/06/27 00:08:30;;;;;;;11.13;5.15;;;15.40;99.90;;;;;;5038728;28;20053;-73
2023/06/27 00:10:57;;;;;;;8.50;4.03;;;15.40;99.90;;;;;;5039041;28;20052;-73
2023/06/27 00:13:22;;;;;;;10.98;4.57;;;15.40;99.90;;;;;;5039013;28;20056;-73
2023/06/27 00:15:52;;;;;;;9.43;4.35;;;15.40;99.90;;;;;;5034353;28;20038;-73
2023/06/27 00:18:21;;;;;;;9.95;4.35;;;15.40;99.90;;;;;;5041771;28;20043;-73
2023/06/27 00:20:50;;;;;;;8.75;4.13;;;15.40;99.90;;;;;;4974465;28;20127;-74
2023/06/27 00:23:24;;;;;;;7.05;4.22;;;15.40;99.90;;;;;;4974730;28;20047;-73
2023/06/27 00:25:50;;;;;;;9.20;3.97;;;15.40;99.90;;;;;;5041912;28;20046;-73
2023/06/27 00:28:15;;;;;;;7.60;4.28;;;15.40;99.90;;;;;;4974690;28;20387;-73
2023/06/27 00:30:41;;;;;;;8.10;3.55;;;15.40;99.90;;;;;;5041754;28;20047;-73
2023/06/27 00:33:09;;;;;;;10.05;4.00;;;15.30;99.90;;;;;;4974577;28;20038;-73
2023/06/27 00:35:35;;;;;;;8.30;4.93;;;15.40;99.90;;;;;;5041728;28;20046;-73
2023/06/27 00:38:02;;;;;;;6.65;3.75;;;15.40;99.90;;;;;;5041675;28;20051;-73
2023/06/27 00:40:27;;;;;;;9.80;3.78;;;15.30;99.90;;;;;;4974323;28;20046;-73
2023/06/27 00:42:53;;;;;;;10.32;3.55;;;15.40;99.90;;;;;;5041432;28;20047;-73
2023/06/27 00:45:22;;;;;;;8.73;3.20;;;15.40;99.90;;;;;;5041440;28;20058;-73
2023/06/27 00:47:47;;;;;;;8.95;4.10;;;15.40;99.90;;;;;;5041044;28;20058;-73
2023/06/27 00:50:13;;;;;;;8.60;3.05;;;15.40;99.90;;;;;;4974347;28;20121;-73
2023/06/27 00:52:40;;;;;;;10.52;3.33;;;15.40;99.90;;;;;;5041115;28;20487;-73
2023/06/27 00:55:07;;;;;;;11.20;3.20;;;15.40;99.90;;;;;;5041501;28;20054;-73
2023/06/27 00:57:33;;;;;;;7.82;3.10;;;15.40;99.90;;;;;;4973317;28;20054;-73
2023/06/27 00:59:59;;;;;;;6.55;2.88;;;15.50;99.90;;;;;;5041117;28;20138;-73
2023/06/27 01:02:25;;;;;;;7.53;2.55;;;15.50;99.90;;;;;;5041235;28;20482;-73
2023/06/27 01:04:53;;;;;;;11.10;3.00;;;15.50;99.90;;;;;;5041049;28;20054;-73
2023/06/27 01:07:58;;;;;;;9.65;3.22;;;15.50;99.90;;;;;;5040972;28;20039;-73
2023/06/27 01:10:49;;;;;;;6.07;3.13;;;15.60;99.90;;;;;;4974357;28;20490;-73
2023/06/27 01:13:23;;;;;;;7.47;2.80;;;15.60;99.90;;;;;;5040731;28;20101;-73
2023/06/27 01:15:49;;;;;;;11.35;3.22;;;15.60;99.90;;;;;;5041032;28;20509;-73
2023/06/27 01:18:16;;;;;;;9.30;2.90;;;15.60;99.90;;;;;;5041285;28;20058;-73
2023/06/27 01:20:45;;;;;;;8.55;3.20;;;15.70;99.90;;;;;;4973716;28;20093;-73
2023/06/27 01:23:28;;;;;;;5.72;2.88;;;15.70;99.90;;;;;;4973817;28;20035;-73
2023/06/27 01:26:09;;;;;;;10.23;2.75;;;15.90;99.90;;;;;;4973845;28;20047;-73
2023/06/27 01:28:36;;;;;;;11.90;2.70;;;16.10;99.90;;;;;;4973692;28;20418;-73
2023/06/27 01:31:02;;;;;;;8.85;2.50;;;16.30;99.90;;;;;;5040740;28;20490;-73
2023/06/27 01:33:55;;;;;;;11.15;2.95;;;16.40;99.90;;;;;;5040245;28;20047;-73
2023/06/27 01:36:30;;;;;;;11.75;2.75;;;16.50;99.90;;;;;;4973832;28;20077;-73
2023/06/27 01:39:26;;;;;;;11.35;2.88;;;16.60;99.90;;;;;;5040820;28;20043;-73
2023/06/27 01:41:57;;;;;;;10.55;2.42;;;16.60;99.90;;;;;;5038518;28;20055;-73
2023/06/27 01:44:25;;;;;;;11.45;2.70;;;16.70;99.90;;;;;;5040497;28;20076;-73
2023/06/27 01:46:52;;;;;;;8.82;2.50;;;16.70;99.90;;;;;;4973508;28;20054;-73
2023/06/27 01:49:18;;;;;;;12.23;2.95;;;16.70;99.90;;;;;;5040316;28;20050;-73
2023/06/27 01:51:44;;;;;;;8.38;2.88;;;16.80;99.90;;;;;;4973174;28;20149;-73
2023/06/27 01:54:10;;;;;;;8.25;2.38;;;16.80;99.90;;;;;;5040086;28;20055;-73
2023/06/27 01:56:35;;;;;;;12.43;2.72;;;16.80;99.90;;;;;;5040231;28;20049;-73
2023/06/27 01:59:02;;;;;;;9.25;2.72;;;16.80;99.90;;;;;;5039910;28;20406;-73
2023/06/27 02:01:28;;;;;;;10.68;2.50;;;16.80;99.90;;;;;;5039935;28;20042;-73
2023/06/27 02:03:53;;;;;;;10.88;2.47;;;16.80;99.90;;;;;;5040239;28;20053;-73
2023/06/27 02:06:19;;;;;;;7.32;2.70;;;16.80;99.90;;;;;;5040189;28;20494;-73
2023/06/27 02:08:45;;;;;;;10.48;2.50;;;16.90;99.90;;;;;;5038532;28;20082;-73
2023/06/27 02:11:11;;;;;;;11.38;3.15;;;16.80;99.90;;;;;;5039611;28;20117;-73
2023/06/27 02:13:37;;;;;;;8.65;2.35;;;16.90;99.90;;;;;;5039894;28;20086;-73
2023/06/27 02:16:03;;;;;;;7.18;2.35;;;16.90;99.90;;;;;;4973030;28;20521;-73
2023/06/27 02:18:29;;;;;;;9.40;2.53;;;16.90;99.90;;;;;;4972948;28;20046;-73
2023/06/27 02:20:55;;;;;;;7.15;2.22;;;16.90;99.90;;;;;;4972731;28;20047;-73
2023/06/27 02:23:21;;;;;;;6.95;2.30;;;16.90;99.90;;;;;;5039767;28;20050;-73
2023/06/27 02:25:47;;;;;;;9.38;2.33;;;16.90;99.90;;;;;;5039683;28;20390;-73
2023/06/27 02:28:12;;;;;;;10.90;2.70;;;16.90;99.90;;;;;;5039726;28;20474;-73
2023/06/27 02:30:38;;;;;;;7.78;2.47;;;16.90;99.90;;;;;;4972571;28;20047;-73
2023/06/27 02:33:04;;;;;;;8.35;2.58;;;16.90;99.90;;;;;;5039613;28;20155;-73
2023/06/27 02:35:29;;;;;;;12.57;3.25;;;16.90;99.90;;;;;;4972522;28;20051;-73
2023/06/27 02:37:55;;;;;;;12.15;2.80;;;16.90;99.90;;;;;;5039182;28;20530;-73
2023/06/27 02:40:21;;;;;;;7.93;2.88;;;16.90;99.90;;;;;;5039235;28;20049;-73
2023/06/27 02:42:47;;;;;;;10.40;2.58;;;16.90;99.90;;;;;;4972362;28;20043;-73
2023/06/27 02:45:13;;;;;;;10.45;2.70;;;16.90;99.90;;;;;;4972786;28;20058;-73
2023/06/27 02:47:39;;;;;;;11.40;2.30;;;16.90;99.90;;;;;;5039068;28;20486;-73
2023/06/27 02:50:05;;;;;;;8.82;2.70;;;16.90;99.90;;;;;;5039110;28;20046;-74
2023/06/27 02:52:30;;;;;;;10.80;2.20;;;16.90;99.90;;;;;;4972448;28;20093;-73
2023/06/27 02:54:56;;;;;;;9.60;2.50;;;16.90;99.90;;;;;;5038778;28;20051;-73
2023/06/27 02:57:22;;;;;;;10.88;2.47;;;16.90;99.90;;;;;;5039184;28;20054;-73
2023/06/27 02:59:47;;;;;;;9.13;2.58;;;16.90;99.90;;;;;;5038625;28;20039;-73
2023/06/27 03:02:13;;;;;;;6.07;2.10;;;16.90;99.90;;;;;;5038820;28;20055;-73
2023/06/27 03:04:38;;;;;;;10.52;2.63;;;16.90;99.90;;;;;;5038512;28;20485;-73
2023/06/27 03:07:05;;;;;;;8.25;2.58;;;16.90;99.90;;;;;;4970940;28;20050;-72
2023/06/27 03:09:32;;;;;;;9.38;2.28;;;16.90;99.90;;;;;;4971260;28;20065;-73
2023/06/27 03:11:58;;;;;;;12.30;2.80;;;16.90;99.90;;;;;;5038640;28;20086;-72
2023/06/27 03:14:24;;;;;;;8.70;2.92;;;16.80;99.90;;;;;;4972046;28;20120;-73
2023/06/27 03:16:49;;;;;;;10.38;2.60;;;16.90;99.90;;;;;;4972084;28;20071;-73
2023/06/27 03:19:15;;;;;;;9.43;2.70;;;16.90;99.90;;;;;;4971916;28;20047;-72
2023/06/27 03:21:40;;;;;;;7.85;2.53;;;16.90;99.90;;;;;;4971711;28;20055;-72
2023/06/27 03:24:06;;;;;;;15.68;2.55;;;16.90;99.90;;;;;;5038445;28;20046;-73
2023/06/27 03:26:32;;;;;;;9.25;2.67;;;16.90;99.90;;;;;;5038727;28;20050;-73
2023/06/27 03:28:57;;;;;;;5.85;2.60;;;16.90;99.90;;;;;;5038281;28;20049;-72
2023/06/27 03:31:23;;;;;;;11.40;2.50;;;16.80;99.90;;;;;;5038323;28;20130;-73
2023/06/27 03:33:50;;;;;;;11.20;2.65;;;16.90;99.90;;;;;;5038338;28;20061;-73
2023/06/27 03:36:16;;;;;;;8.82;2.67;;;16.80;99.90;;;;;;4971661;28;20047;-72
2023/06/27 03:38:42;;;;;;;6.68;2.63;;;16.80;99.90;;;;;;5038329;28;20104;-72
2023/06/27 03:41:07;;;;;;;10.73;3.22;;;16.80;99.90;;;;;;4971661;28;20057;-73
2023/06/27 03:43:33;;;;;;;9.07;2.80;;;16.80;99.90;;;;;;4971765;28;20085;-73
2023/06/27 03:45:59;;;;;;;9.38;2.97;;;16.90;99.90;;;;;;4971943;28;20053;-72
2023/06/27 03:48:24;;;;;;;8.30;3.10;;;16.80;99.90;;;;;;5038256;28;20051;-73
2023/06/27 03:50:50;;;;;;;9.50;3.28;;;16.80;99.90;;;;;;5038293;28;20042;-73
2023/06/27 03:53:15;;;;;;;8.90;2.97;;;16.80;99.90;;;;;;5038254;28;20059;-72
2023/06/27 03:55:41;;;;;;;9.30;2.75;;;16.90;99.90;;;;;;5038223;28;20047;-72
2023/06/27 03:58:07;;;;;;;9.40;3.22;;;16.90;99.90;;;;;;5038528;28;20050;-73
2023/06/27 04:00:33;;;;;;;12.63;3.17;;;16.90;99.90;;;;;;4971504;28;20130;-73
2023/06/27 04:02:59;;;;;;;10.73;3.00;;;16.90;99.90;;;;;;5037869;28;20134;-72
2023/06/27 04:05:24;;;;;;;7.82;2.50;;;16.90;99.90;;;;;;5038305;28;20047;-72
2023/06/27 04:07:50;;;;;;;9.85;2.72;;;16.90;99.90;;;;;;5038259;28;20150;-73
2023/06/27 04:10:18;;;;;;;7.53;2.50;;;16.90;99.90;;;;;;5037947;28;20058;-73
2023/06/27 04:12:44;;;;;;;8.13;2.17;;;16.90;99.90;;;;;;4971451;28;20089;-73
2023/06/27 04:15:09;;;;;;;10.52;2.60;;;17.00;99.90;;;;;;5038202;28;20143;-73
2023/06/27 04:17:35;;;;;;;9.43;2.67;;;17.10;99.90;;;;;;5038288;28;20069;-72
2023/06/27 04:20:01;;;;;;;8.75;2.72;;;17.10;99.90;;;;;;4971096;28;20043;-73
2023/06/27 04:22:27;;;;;;;11.45;2.40;;;17.10;99.90;;;;;;4971293;28;20047;-73
2023/06/27 04:24:53;;;;;;;10.80;3.58;;;17.20;99.90;;;;;;4971034;28;20039;-73
2023/06/27 04:27:18;;;;;;;13.95;2.90;;;17.30;99.90;;;;;;5038091;28;20043;-73
2023/06/27 04:29:44;;;;;;;9.32;2.90;;;17.30;99.90;;;;;;5038139;28;20074;-73
2023/06/27 04:32:10;;;;;;;7.47;2.40;;;17.40;99.90;;;;;;5038324;28;20082;-73
2023/06/27 04:34:36;;;;;;;9.77;2.60;;;17.50;99.90;;;;;;5041221;28;20053;-73
2023/06/27 04:37:03;;;;;;;8.68;2.63;;;17.60;99.90;;;;;;4974219;28;20364;-73
2023/06/27 04:39:29;;;;;;;12.52;2.53;;;17.60;99.90;;;;;;4974069;28;20380;-73
2023/06/27 04:41:56;;;;;;;11.73;2.72;;;17.60;99.90;;;;;;5040674;28;20380;-73
2023/06/27 04:44:22;;;;;;;12.38;2.17;;;17.70;99.90;;;;;;5041150;28;20058;-73
2023/06/27 04:46:48;;;;;;;9.32;2.33;;;17.80;99.90;;;;;;4974261;28;20051;-73
2023/06/27 04:49:14;;;;;;;8.73;2.28;;;17.90;99.90;;;;;;4974078;28;20382;-73
2023/06/27 04:51:40;;;;;;;8.15;1.92;;;17.90;99.90;;;;;;5040884;28;20479;-73
2023/06/27 04:54:05;;;;;;;8.40;2.08;;;18.00;99.90;;;;;;5041151;28;20047;-73
2023/06/27 04:56:33;;;;;;;8.32;2.30;;;18.00;99.90;;;;;;5040899;28;20088;-73
2023/06/27 04:58:59;;;;;;;8.10;2.05;;;18.10;99.90;;;;;;5041031;28;20054;-73
2023/06/27 05:01:24;;;;;;;10.85;2.63;;;18.20;99.90;;;;;;5040757;28;20406;-73
2023/06/27 05:03:50;;;;;;;8.35;2.78;;;18.30;99.90;;;;;;4974011;28;20163;-73
2023/06/27 05:06:16;;;;;;;9.35;2.00;;;18.30;99.90;;;;;;5040905;28;20062;-73
2023/06/27 05:08:41;;;;;;;7.45;1.88;;;18.30;99.90;;;;;;5040819;28;20410;-73
2023/06/27 05:11:07;;;;;;;9.52;2.35;;;18.30;99.90;;;;;;5040577;28;20062;-73
2023/06/27 05:13:32;;;;;;;12.90;2.55;;;18.40;99.90;;;;;;4973759;28;20039;-73
2023/06/27 05:15:58;;;;;;;11.15;2.47;;;18.50;99.90;;;;;;5040460;28;20069;-73
2023/06/27 05:18:25;;;;;;;7.97;1.90;;;18.60;99.90;;;;;;5040594;28;20101;-73
2023/06/27 05:20:51;;;;;;;6.45;2.35;;;18.70;99.90;;;;;;4973692;28;20069;-73
2023/06/27 05:23:18;;;;;;;7.20;1.73;;;18.60;99.90;;;;;;4973629;28;20421;-73
2023/06/27 05:25:43;;;;;;;7.35;1.98;;;18.90;99.90;;;;;;4973626;28;20050;-73
2023/06/27 05:28:09;;;;;;;8.85;2.22;;;19.00;99.90;;;;;;5040343;28;20046;-73
2023/06/27 05:30:34;;;;;;;11.63;2.58;;;19.10;99.90;;;;;;5040538;28;20061;-73
2023/06/27 05:33:03;;;;;;;7.50;1.90;;;19.20;99.90;;;;;;5040113;28;20452;-73
2023/06/27 05:35:28;;;;;;;8.68;1.73;;;19.20;99.90;;;;;;5040714;28;20471;-74
2023/06/27 05:37:54;;;;;;;6.97;1.75;;;19.20;99.90;;;;;;4973262;28;20081;-73
2023/06/27 05:40:20;;;;;;;10.77;1.92;;;19.40;99.90;;;;;;5040229;28;20474;-73
2023/06/27 05:42:45;;;;;;;8.80;1.90;;;19.40;99.90;;;;;;5039763;28;20061;-73
2023/06/27 05:45:11;;;;;;;8.63;2.13;;;19.50;99.90;;;;;;5039934;28;20082;-73
2023/06/27 05:47:37;;;;;;;13.20;1.95;;;19.60;99.90;;;;;;4973356;28;20042;-73
2023/06/27 05:50:03;;;;;;;11.93;1.90;;;19.70;99.90;;;;;;5040031;28;20398;-73
2023/06/27 05:52:29;;;;;;;6.10;1.70;;;19.80;99.90;;;;;;4973069;28;20047;-73
2023/06/27 05:54:55;;;;;;;8.50;1.83;;;20.00;99.90;;;;;;5040026;28;20054;-74
2023/06/27 05:57:21;;;;;;;10.93;1.98;;;20.20;99.90;;;;;;5039882;28;20410;-74
2023/06/27 05:59:48;;;;;;;13.98;2.00;;;20.40;99.90;;;;;;5039590;28;20093;-74
2023/06/27 06:02:14;;;;;;;6.45;1.55;;;20.30;99.90;;;;;;4973255;28;20050;-74
2023/06/27 06:04:39;;;;;;;13.85;3.00;;;20.30;99.90;;;;;;5039589;28;20517;-74
2023/06/27 06:07:05;;;;;;;6.30;1.45;;;20.50;99.90;;;;;;5039862;28;20516;-73
2023/06/27 06:09:31;;;;;;;7.93;2.15;;;20.50;99.90;;;;;;5039571;28;20138;-74
2023/06/27 06:11:57;;;;;;;11.75;1.85;;;20.50;99.90;;;;;;5039595;28;20486;-73
2023/06/27 06:14:23;;;;;;;8.95;1.70;;;20.50;99.90;;;;;;5039868;28;20054;-73
2023/06/27 06:16:49;;;;;;;9.55;1.92;;;20.60;99.90;;;;;;5039482;28;20452;-74
2023/06/27 06:19:14;;;;;;;13.98;1.80;;;20.70;99.90;;;;;;4972830;28;20053;-74
2023/06/27 06:21:40;;;;;;;6.68;1.65;;;20.70;99.90;;;;;;4972805;28;20045;-73
2023/06/27 06:24:08;;;;;;;10.55;1.75;;;20.80;99.90;;;;;;5039516;28;20049;-72
2023/06/27 06:26:35;;;;;;;12.05;2.10;;;20.80;99.90;;;;;;5039164;28;20429;-73
2023/06/27 06:29:01;;;;;;;9.80;2.03;;;20.70;99.90;;;;;;5039405;28;20134;-75
2023/06/27 06:31:27;;;;;;;12.00;2.00;;;20.80;99.90;;;;;;5039295;28;20054;-73
2023/06/27 06:33:53;;;;;;;14.40;1.67;;;20.80;99.90;;;;;;5039062;28;20084;-74
2023/06/27 06:36:19;;;;;;;10.77;2.05;;;21.00;99.90;;;;;;5039506;28;20046;-73
2023/06/27 06:38:45;;;;;;;8.60;1.48;;;21.00;99.90;;;;;;5039385;28;20066;-74
2023/06/27 06:41:10;;;;;;;7.28;1.55;;;21.00;99.90;;;;;;5038971;28;20422;-74
2023/06/27 06:43:36;;;;;;;11.73;2.20;;;21.20;99.90;;;;;;5016422;28;20075;-73
2023/06/27 06:46:02;;;;;;;8.98;1.90;;;21.30;99.90;;;;;;4935712;29;20050;-73
2023/06/27 06:48:27;;;;;;;9.93;3.38;;;21.30;99.90;;;;;;4999553;28;20050;-74
2023/06/27 06:50:53;;;;;;;9.77;1.73;;;21.30;99.90;;;;;;4999502;28;20556;-74
2023/06/27 06:53:19;;;;;;;7.88;1.40;;;21.30;99.90;;;;;;4999503;28;20498;-73
2023/06/27 06:55:45;;;;;;;6.55;1.55;;;21.40;99.90;;;;;;4998739;28;20051;-74
2023/06/27 06:58:11;;;;;;;10.60;1.80;;;21.40;99.90;;;;;;4999141;28;20081;-73
2023/06/27 07:00:36;;;;;;;10.30;1.65;;;21.40;99.90;;;;;;4998922;28;20087;-74
2023/06/27 07:03:09;;;;;;;10.93;2.40;;;21.50;99.90;;;;;;4999287;28;20051;-74
2023/06/27 07:05:38;;;;;;;7.15;1.63;;;21.50;99.90;;;;;;4999316;28;20055;-73
2023/06/27 07:08:05;;;;;;;8.00;1.30;;;21.60;99.90;;;;;;4998918;28;20052;-72
2023/06/27 07:10:33;;;;;;;9.98;1.73;;;21.40;99.90;;;;;;5013930;28;20053;-73
2023/06/27 07:13:02;;;;;;;9.68;1.73;;;21.30;99.90;;;;;;5020832;28;20370;-73
2023/06/27 07:15:29;;;;;;;10.07;1.65;;;21.30;99.90;;;;;;5013721;28;20096;-73
2023/06/27 07:17:55;;;;;;;7.88;1.63;;;21.30;99.90;;;;;;5012353;28;20046;-73
2023/06/27 07:20:22;;;;;;;4.85;0.90;;;21.20;99.90;;;;;;5012237;28;20045;-73
2023/06/27 07:22:51;;;;;;;6.00;1.42;;;20.90;99.90;;;;;;5013444;28;20466;-73
2023/06/27 07:25:18;;;;;;;5.25;1.33;;;20.70;99.90;;;;;;5013501;28;20124;-74
2023/06/27 07:27:44;;;;;;;5.03;1.30;;;20.80;99.90;;;;;;5012467;28;20064;-73
2023/06/27 07:30:11;;;;;;;7.25;1.70;;;20.70;99.90;;;;;;5012466;28;20054;-75
2023/06/27 07:32:36;;;;;;;10.48;2.38;;;20.60;99.90;;;;;;5012147;28;20385;-74
2023/06/27 07:35:04;;;;;;;8.52;1.58;;;20.70;99.90;;;;;;5013354;28;20504;-74
2023/06/27 07:37:30;;;;;;;6.63;1.60;;;20.90;99.90;;;;;;5012272;28;20137;-73
2023/06/27 07:39:57;;;;;;;5.90;1.50;;;21.00;99.90;;;;;;5012242;28;20042;-74
2023/06/27 07:42:24;;;;;;;4.53;1.20;;;21.00;99.90;;;;;;5012604;28;20045;-74
2023/06/27 07:44:49;;;;;;;7.00;1.52;;;21.20;99.90;;;;;;5012025;28;20437;-74
2023/06/27 07:47:15;;;;;;;10.40;1.63;;;21.30;99.90;;;;;;5012956;28;20478;-73
2023/06/27 07:49:41;;;;;;;9.18;1.73;;;21.50;99.90;;;;;;5013220;28;20034;-73
2023/06/27 07:52:07;;;;;;;7.68;1.50;;;21.50;99.90;;;;;;5013166;28;20462;-72
2023/06/27 07:54:33;;;;;;;6.22;1.40;;;21.70;99.90;;;;;;5011934;28;20049;-73
2023/06/27 07:56:59;;;;;;;7.78;1.58;;;21.80;99.90;;;;;;5012172;28;20084;-74
2023/06/27 07:59:26;;;;;;;10.52;1.42;;;22.00;99.90;;;;;;5013373;28;20050;-74
2023/06/27 08:01:53;;;;;;;6.22;1.10;;;22.10;99.90;;;;;;5011743;28;20053;-73
2023/06/27 08:04:19;;;;;;;10.00;1.60;;;22.10;99.90;;;;;;5012066;28;20066;-74
2023/06/27 08:06:45;;;;;;;6.80;1.83;;;22.00;99.90;;;;;;5013742;28;20401;-75
2023/06/27 08:09:10;;;;;;;6.30;1.42;;;22.00;99.90;;;;;;5015161;28;20053;-75
2023/06/27 08:11:38;;;;;;;10.75;1.52;;;22.30;99.90;;;;;;5016574;28;20124;-74
2023/06/27 08:14:03;;;;;;;8.57;1.83;;;22.40;99.90;;;;;;5016957;28;20046;-74
2023/06/27 08:16:29;;;;;;;8.30;1.60;;;22.40;99.90;;;;;;5016587;28;20385;-74
2023/06/27 08:18:55;;;;;;;11.18;1.88;;;22.40;99.90;;;;;;5015427;28;20508;-74
2023/06/27 08:21:21;;;;;;;11.90;3.45;;;22.10;99.90;;;;;;5016763;28;20084;-74
2023/06/27 08:23:46;;;;;;;7.93;1.27;;;22.10;99.90;;;;;;5016473;28;20205;-74
2023/06/27 08:26:16;;;;;;;7.40;1.35;;;22.20;99.90;;;;;;5016380;28;20125;-75
2023/06/27 08:28:45;;;;;;;7.65;1.50;;;22.20;99.90;;;;;;5016768;28;20160;-74
2023/06/27 08:31:11;;;;;;;8.77;1.58;;;22.40;99.90;;;;;;5015212;28;20046;-73
2023/06/27 08:33:38;;;;;;;8.32;1.50;;;22.40;99.90;;;;;;5014841;28;20057;-73
2023/06/27 08:36:04;;;;;;;10.68;1.70;;;22.70;99.90;;;;;;5015290;28;20037;-74
2023/06/27 08:38:29;;;;;;;7.97;1.55;;;22.70;99.90;;;;;;5016522;28;20398;-74
2023/06/27 08:40:55;;;;;;;13.55;2.00;;;22.70;99.90;;;;;;5014921;28;20137;-74
2023/06/27 08:43:22;;;;;;;6.10;1.33;;;22.60;99.90;;;;;;5015003;28;20134;-75
2023/06/27 08:45:54;;;;;;;7.63;1.02;;;22.50;99.90;;;;;;5014644;28;20050;-74
2023/06/27 08:48:20;;;;;;;7.60;1.58;;;22.60;99.90;;;;;;5014852;28;20134;-74
2023/06/27 08:50:47;;;;;;;6.00;1.25;;;22.50;99.90;;;;;;5015125;28;20050;-75
2023/06/27 08:53:14;;;;;;;9.88;1.67;;;22.50;99.90;;;;;;5015124;28;20050;-74
2023/06/27 08:55:51;;;;;;;7.50;1.63;;;22.40;99.90;;;;;;5014730;28;20500;-74
2023/06/27 08:58:20;;;;;;;9.05;1.75;;;22.70;99.90;;;;;;5016075;28;20056;-74
2023/06/27 09:00:46;;;;;;;8.25;1.40;;;22.80;99.90;;;;;;5015956;28;20061;-75
2023/06/27 09:03:13;;;;;;;9.70;1.58;;;22.50;99.90;;;;;;5015787;28;20548;-75
2023/06/27 09:05:40;;;;;;;7.65;1.40;;;22.70;99.90;;;;;;5031349;28;20034;-74
2023/06/27 09:08:05;;;;;;;10.70;1.38;;;22.70;99.90;;;;;;5015735;28;20068;-75
2023/06/27 09:10:32;;;;;;;7.72;1.67;;;22.70;99.90;;;;;;5014259;28;20390;-74
2023/06/27 09:12:59;;;;;;;9.40;1.50;;;22.50;99.90;;;;;;5014452;28;20457;-74
2023/06/27 09:15:25;;;;;;;5.15;1.00;;;22.50;99.90;;;;;;5014092;28;20096;-75
2023/06/27 09:17:51;;;;;;;12.07;1.90;;;22.50;99.90;;;;;;5015338;28;20042;-74
2023/06/27 09:20:19;;;;;;;18.58;3.47;;;22.60;99.90;;;;;;5031802;28;20042;-74
2023/06/27 09:22:45;;;;;;;6.38;1.23;;;22.50;99.90;;;;;;5042981;28;20475;-74
2023/06/27 09:25:15;;;;;;;6.05;1.38;;;22.70;99.90;;;;;;5055125;28;20528;-74
2023/06/27 09:27:42;;;;;;;5.80;2.63;;;22.70;99.90;;;;;;5053641;28;20044;-74
2023/06/27 09:30:09;;;;;;;6.93;1.30;;;22.50;99.90;;;;;;5055239;28;20120;-75
2023/06/27 09:32:50;;;;;;;6.85;1.35;;;22.60;99.90;;;;;;5053954;28;20124;-74
2023/06/27 09:35:16;;;;;;;7.95;1.85;;;22.70;99.90;;;;;;5053487;28;20057;-74
2023/06/27 09:37:42;;;;;;;8.15;1.70;;;22.50;99.90;;;;;;5053663;28;20041;-74
2023/06/27 09:40:20;;;;;;;6.90;1.65;;;22.50;99.90;;;;;;5053522;28;20053;-74
2023/06/27 09:42:54;;;;;;;12.07;1.83;;;22.20;99.90;;;;;;5054746;28;20500;-73
2023/06/27 09:45:20;;;;;;;14.65;2.00;;;22.20;99.90;;;;;;5053577;28;20037;-74
2023/06/27 09:47:50;;;;;;;6.20;1.50;;;22.40;99.90;;;;;;5053479;28;20071;-73
2023/06/27 09:50:16;;;;;;;6.53;1.25;;;22.60;99.90;;;;;;5054871;28;20095;-74
2023/06/27 09:52:52;;;;;;;11.80;2.80;;;22.70;99.90;;;;;;5051460;28;20045;-74
2023/06/27 09:55:19;;;;;;;7.43;1.60;;;22.40;99.90;;;;;;5018113;28;20081;-75
2023/06/27 09:57:45;;;;;;;11.07;1.40;;;22.30;99.90;;;;;;5047515;28;20045;-75
2023/06/27 10:00:11;;;;;;;9.95;1.65;;;21.90;99.90;;;;;;5050357;28;20386;-75
2023/06/27 10:02:37;;;;;;;9.98;1.60;;;21.90;99.90;;;;;;5051968;28;20056;-75
2023/06/27 10:05:03;;;;;;;11.10;1.63;;;21.80;99.90;;;;;;5054494;28;20037;-74
2023/06/27 10:07:32;;;;;;;8.23;1.58;;;21.60;99.90;;;;;;5053069;28;20056;-74
2023/06/27 10:09:58;;;;;;;8.75;1.60;;;21.50;99.90;;;;;;5052947;28;20151;-75
2023/06/27 10:12:25;;;;;;;9.02;2.03;;;21.60;99.90;;;;;;5053765;28;20549;-74
2023/06/27 10:14:52;;;;;;;6.05;1.42;;;21.80;99.90;;;;;;5053285;28;20080;-74
2023/06/27 10:17:21;;;;;;;6.70;1.42;;;21.80;99.90;;;;;;5052818;28;20087;-74
2023/06/27 10:19:47;;;;;;;13.20;1.70;;;21.80;99.90;;;;;;5052843;28;20036;-74
2023/06/27 10:22:18;;;;;;;10.57;2.47;;;21.90;99.90;;;;;;5052642;28;20473;-74
2023/06/27 10:24:48;;;;;;;12.93;1.58;;;21.80;99.90;;;;;;5054005;28;20611;-74
2023/06/27 10:27:21;;;;;;;9.10;1.98;;;21.80;99.90;;;;;;5053877;28;20048;-74
2023/06/27 10:29:47;;;;;;;6.88;1.30;;;21.90;99.90;;;;;;5051375;28;20040;-74
2023/06/27 10:32:18;;;;;;;8.30;1.60;;;21.90;99.90;;;;;;5054132;28;20040;-74
2023/06/27 10:34:44;;;;;;;7.82;1.60;;;21.90;99.90;;;;;;5054005;28;20045;-74
2023/06/27 10:37:22;;;;;;;6.25;1.38;;;22.00;99.90;;;;;;5053818;28;20048;-74
2023/06/27 10:40:00;;;;;;;7.45;1.40;;;22.00;99.90;;;;;;5053769;28;20128;-74
2023/06/27 10:42:29;;;;;;;3.88;0.90;;;21.90;99.90;;;;;;5052772;28;20048;-74
2023/06/27 10:45:01;;;;;;;6.03;1.50;;;22.00;99.90;;;;;;5052382;28;20503;-75
2023/06/27 10:47:34;;;;;;;4.55;1.17;;;22.00;99.90;;;;;;5052215;28;20049;-75
2023/06/27 10:50:10;;;;;;;6.93;1.52;;;22.00;99.90;;;;;;5052405;28;20048;-75
2023/06/27 10:52:37;;;;;;;5.57;1.40;;;22.10;99.90;;;;;;5052554;28;20072;-75
2023/06/27 10:55:15;;;;;;;6.68;1.35;;;22.20;99.90;;;;;;5052469;28;20045;-75
2023/06/27 10:57:47;;;;;;;8.65;1.63;;;22.20;99.90;;;;;;5053423;28;20098;-73
2023/06/27 11:00:24;;;;;;;11.93;2.10;;;22.20;99.90;;;;;;5052107;28;20055;-78
2023/06/27 11:02:53;;;;;;;7.88;1.50;;;22.40;99.90;;;;;;5051418;28;20060;-78
2023/06/27 11:05:34;;;;;;;4.75;1.38;;;22.40;99.90;;;;;;5052296;28;20051;-78
2023/06/27 11:08:00;;;;;;;7.13;1.73;;;22.10;99.90;;;;;;5051832;28;20045;-79
2023/06/27 11:10:31;;;;;;;7.15;1.70;;;22.10;99.90;;;;;;5051926;28;20060;-77
2023/06/27 11:13:14;;;;;;;10.90;1.50;;;22.00;99.90;;;;;;5052119;28;20050;-76
2023/06/27 11:15:42;;;;;;;9.45;1.40;;;22.20;99.90;;;;;;5051829;28;20049;-76
2023/06/27 11:18:11;;;;;;;7.90;1.50;;;22.30;99.90;;;;;;5052054;28;20385;-79
2023/06/27 11:20:37;;;;;;;7.57;1.63;;;22.00;99.90;;;;;;5052068;28;20124;-79
2023/06/27 11:23:03;;;;;;;7.25;1.50;;;22.20;99.90;;;;;;5051860;28;20190;-79
2023/06/27 11:25:36;;;;;;;6.20;1.50;;;22.10;99.90;;;;;;5051808;28;20476;-78
2023/06/27 11:28:02;;;;;;;7.55;1.50;;;22.20;99.90;;;;;;5051854;28;20132;-78
2023/06/27 11:30:30;;;;;;;7.22;1.40;;;22.00;99.90;;;;;;5051879;28;20140;-78
2023/06/27 11:32:56;;;;;;;8.55;1.50;;;21.90;99.90;;;;;;5051753;28;20556;-79
2023/06/27 11:35:22;;;;;;;5.88;1.30;;;22.10;99.90;;;;;;5052021;28;20397;-74
2023/06/27 11:37:54;;;;;;;7.53;2.35;;;22.10;99.90;;;;;;5053096;28;20485;-73
2023/06/27 11:40:23;;;;;;;5.82;1.58;;;22.30;99.90;;;;;;5051811;28;20049;-74
2023/06/27 11:42:49;;;;;;;13.82;1.80;;;22.40;99.90;;;;;;5053863;28;20052;-75
2023/06/27 11:45:15;;;;;;;7.28;1.48;;;22.20;99.90;;;;;;5025953;28;20034;-75
2023/06/27 11:47:40;;;;;;;8.82;1.70;;;22.10;99.90;;;;;;5026328;28;20042;-74
2023/06/27 11:50:10;;;;;;;5.63;1.48;;;22.20;99.90;;;;;;5027520;28;20053;-74
2023/06/27 11:52:37;;;;;;;8.77;1.58;;;22.10;99.90;;;;;;5026519;28;20041;-73
2023/06/27 11:55:05;;;;;;;7.13;1.42;;;22.20;99.90;;;;;;5024344;28;20562;-74
2023/06/27 11:58:00;;;;;;;6.43;1.50;;;22.10;99.90;;;;;;5026549;28;20090;-74
2023/06/27 12:00:28;;;;;;;7.93;1.80;;;22.10;99.90;;;;;;5021476;28;20056;-73
2023/06/27 12:03:00;;;;;;;8.93;2.25;;;22.10;99.90;;;;;;5035806;28;20049;-73
2023/06/27 12:05:27;;;;;;;6.30;1.55;;;21.90;99.90;;;;;;5035554;28;20034;-73
2023/06/27 12:08:07;;;;;;;7.93;2.00;;;21.90;99.90;;;;;;5036909;28;20049;-73
2023/06/27 12:10:51;;;;;;;6.57;1.30;;;21.70;99.90;;;;;;5036008;28;20066;-74
2023/06/27 12:13:16;;;;;;;10.00;1.88;;;21.60;99.90;;;;;;5055595;28;20142;-75
2023/06/27 12:15:44;;;;;;;7.50;1.60;;;21.50;99.90;;;;;;5056597;28;20092;-74
2023/06/27 12:18:11;;;;;;;7.85;1.65;;;21.40;99.90;;;;;;5055375;28;20053;-75
2023/06/27 12:20:42;;;;;;;6.32;1.27;;;21.40;99.90;;;;;;5055337;28;20049;-75
2023/06/27 12:23:08;;;;;;;7.20;1.70;;;21.30;99.90;;;;;;5056229;28;20041;-75
2023/06/27 12:25:35;;;;;;;8.80;1.40;;;21.30;99.90;;;;;;5055071;28;20086;-75
2023/06/27 12:28:01;;;;;;;6.88;1.50;;;21.50;99.90;;;;;;5056289;28;20091;-75
2023/06/27 12:30:27;;;;;;;5.43;1.35;;;21.50;99.90;;;;;;5055038;28;20041;-74
2023/06/27 12:32:52;;;;;;;5.35;1.60;;;21.70;99.90;;;;;;5056189;28;20055;-74
2023/06/27 12:35:18;;;;;;;11.55;2.22;;;21.60;99.90;;;;;;5054872;28;20447;-74
2023/06/27 12:37:45;;;;;;;10.32;2.20;;;21.70;99.90;;;;;;5054780;28;20080;-74
2023/06/27 12:40:12;;;;;;;10.18;2.00;;;21.80;99.90;;;;;;5055180;28;20037;-74
2023/06/27 12:42:37;;;;;;;9.05;2.00;;;22.00;99.90;;;;;;5055063;28;20136;-74
2023/06/27 12:45:03;;;;;;;11.70;2.10;;;21.80;99.90;;;;;;5054464;28;20036;-74